KMKT/MKT METAR and TAF weather

Enter ICAO airport designator
Station Type Date Time Source
KMKT METAR 2019/08/24 16:56 UTC NOAA

KMKT 241656Z AUTO 15010KT 10SM CLR 22/14 A3021 RMK AO2 SLP230 T02170144


Station Type Date Time Source
KMKT Decoded METAR 2019/08/24 16:56 UTC NOAA

Station name not available
Aug 24, 2019 - 12:56 PM EDT / 2019.08.24 1656 UTC
Wind: from the SSE (150 degrees) at 12 MPH (10 KT):0
Visibility: 10 mile(s):0
Sky conditions: clear
Temperature: 71.1 F (21.7 C)
Dew Point: 57.9 F (14.4 C)
Relative Humidity: 63%
Pressure (altimeter): 30.21 in. Hg (1023 hPa)
ob: KMKT 241656Z AUTO 15010KT 10SM CLR 22/14 A3021 RMK AO2 SLP230 T02170144
cycle: 17

Station Type Date Time Source
KMKT TAF 2019/08/24 18:21 UTC NOAA

TAF KMKT 241720Z 2418/2518 15012G19KT P6SM SCT050
FM250000 14009KT P6SM BKN250
FM251000 14012KT P6SM SCT040 BKN100
FM251500 15013G21KT P6SM SCT025 BKN050

Example: see airport list